sensor_id;sensor_type;location;lat;lon;timestamp;temperature;humidity
9776;DHT22;4927;52.472;13.108;2022-11-15T00:03:09;5.30;99.90
9776;DHT22;4927;52.472;13.108;2022-11-15T00:08:16;5.40;99.90
9776;DHT22;4927;52.472;13.108;2022-11-15T00:13:22;5.30;99.90
9776;DHT22;4927;52.472;13.108;2022-11-15T00:18:28;5.30;99.90
9776;DHT22;4927;52.472;13.108;2022-11-15T00:23:34;5.30;99.90
9776;DHT22;4927;52.472;13.108;2022-11-15T00:28:41;5.40;99.90
9776;DHT22;4927;52.472;13.108;2022-11-15T00:33:48;5.40;99.90
9776;DHT22;4927;52.472;13.108;2022-11-15T00:38:55;5.40;99.90
9776;DHT22;4927;52.472;13.108;2022-11-15T00:44:01;5.40;99.90
9776;DHT22;4927;52.472;13.108;2022-11-15T00:49:07;5.30;99.90
9776;DHT22;4927;52.472;13.108;2022-11-15T00:54:13;5.40;99.90
9776;DHT22;4927;52.472;13.108;2022-11-15T00:59:19;5.30;99.90
9776;DHT22;4927;52.472;13.108;2022-11-15T01:04:26;5.20;99.90
9776;DHT22;4927;52.472;13.108;2022-11-15T01:09:32;5.30;99.90
9776;DHT22;4927;52.472;13.108;2022-11-15T01:14:38;5.30;99.90
9776;DHT22;4927;52.472;13.108;2022-11-15T01:19:45;5.60;99.90
9776;DHT22;4927;52.472;13.108;2022-11-15T01:24:51;5.60;99.90
9776;DHT22;4927;52.472;13.108;2022-11-15T01:29:58;5.70;99.90
9776;DHT22;4927;52.472;13.108;2022-11-15T01:35:04;5.70;99.90
9776;DHT22;4927;52.472;13.108;2022-11-15T01:40:11;5.80;99.90
9776;DHT22;4927;52.472;13.108;2022-11-15T01:45:18;5.80;99.90
9776;DHT22;4927;52.472;13.108;2022-11-15T01:50:26;5.80;99.90
9776;DHT22;4927;52.472;13.108;2022-11-15T01:55:30;5.80;99.90
9776;DHT22;4927;52.472;13.108;2022-11-15T02:00:36;5.80;99.90
9776;DHT22;4927;52.472;13.108;2022-11-15T02:05:43;5.80;99.90
9776;DHT22;4927;52.472;13.108;2022-11-15T02:10:49;5.80;99.90
9776;DHT22;4927;52.472;13.108;2022-11-15T02:21:31;5.90;99.90
9776;DHT22;4927;52.472;13.108;2022-11-15T02:32:18;5.80;99.90
9776;DHT22;4927;52.472;13.108;2022-11-15T02:42:54;5.80;99.90
9776;DHT22;4927;52.472;13.108;2022-11-15T02:48:05;5.80;99.90
9776;DHT22;4927;52.472;13.108;2022-11-15T02:53:11;5.80;99.90
9776;DHT22;4927;52.472;13.108;2022-11-15T03:04:02;5.80;99.90
9776;DHT22;4927;52.472;13.108;2022-11-15T03:09:28;5.70;99.90
9776;DHT22;4927;52.472;13.108;2022-11-15T03:14:34;5.70;99.90
9776;DHT22;4927;52.472;13.108;2022-11-15T03:19:44;5.60;99.90
9776;DHT22;4927;52.472;13.108;2022-11-15T03:24:52;5.60;99.90
9776;DHT22;4927;52.472;13.108;2022-11-15T03:29:57;5.60;99.90
9776;DHT22;4927;52.472;13.108;2022-11-15T03:35:04;5.60;99.90
9776;DHT22;4927;52.472;13.108;2022-11-15T03:40:09;5.60;99.90
9776;DHT22;4927;52.472;13.108;2022-11-15T03:45:18;5.60;99.90
9776;DHT22;4927;52.472;13.108;2022-11-15T03:50:23;5.60;99.90
9776;DHT22;4927;52.472;13.108;2022-11-15T03:55:31;5.70;99.90
9776;DHT22;4927;52.472;13.108;2022-11-15T04:00:36;5.60;99.90
9776;DHT22;4927;52.472;13.108;2022-11-15T04:05:42;5.60;99.90
9776;DHT22;4927;52.472;13.108;2022-11-15T04:10:49;5.50;99.90
9776;DHT22;4927;52.472;13.108;2022-11-15T04:15:54;5.50;99.90
9776;DHT22;4927;52.472;13.108;2022-11-15T04:21:01;5.30;99.90
9776;DHT22;4927;52.472;13.108;2022-11-15T04:26:16;5.30;99.90
9776;DHT22;4927;52.472;13.108;2022-11-15T04:31:21;5.20;99.90
9776;DHT22;4927;52.472;13.108;2022-11-15T04:36:27;5.30;99.90
9776;DHT22;4927;52.472;13.108;2022-11-15T04:41:39;5.10;99.90
9776;DHT22;4927;52.472;13.108;2022-11-15T04:46:45;5.00;99.90
9776;DHT22;4927;52.472;13.108;2022-11-15T04:51:52;5.00;99.90
9776;DHT22;4927;52.472;13.108;2022-11-15T04:56:58;4.90;99.90
9776;DHT22;4927;52.472;13.108;2022-11-15T05:02:04;4.90;99.90
9776;DHT22;4927;52.472;13.108;2022-11-15T05:07:10;4.80;99.90
9776;DHT22;4927;52.472;13.108;2022-11-15T05:12:17;4.60;99.90
9776;DHT22;4927;52.472;13.108;2022-11-15T05:17:23;4.60;99.90
9776;DHT22;4927;52.472;13.108;2022-11-15T05:22:30;4.50;99.90
9776;DHT22;4927;52.472;13.108;2022-11-15T05:27:37;4.30;99.90
9776;DHT22;4927;52.472;13.108;2022-11-15T05:32:43;4.30;99.90
9776;DHT22;4927;52.472;13.108;2022-11-15T05:37:49;4.20;99.90
9776;DHT22;4927;52.472;13.108;2022-11-15T05:42:56;4.10;99.90
9776;DHT22;4927;52.472;13.108;2022-11-15T05:48:04;4.00;99.90
9776;DHT22;4927;52.472;13.108;2022-11-15T05:53:09;3.90;99.90
9776;DHT22;4927;52.472;13.108;2022-11-15T05:58:15;3.90;99.90
9776;DHT22;4927;52.472;13.108;2022-11-15T06:03:21;3.90;99.90
9776;DHT22;4927;52.472;13.108;2022-11-15T06:08:27;3.80;99.90
9776;DHT22;4927;52.472;13.108;2022-11-15T06:13:33;3.70;99.90
9776;DHT22;4927;52.472;13.108;2022-11-15T06:18:40;3.70;99.90
9776;DHT22;4927;52.472;13.108;2022-11-15T06:23:46;3.70;99.90
9776;DHT22;4927;52.472;13.108;2022-11-15T06:28:52;3.70;99.90
9776;DHT22;4927;52.472;13.108;2022-11-15T06:33:58;3.60;99.90
9776;DHT22;4927;52.472;13.108;2022-11-15T06:39:04;3.60;99.90
9776;DHT22;4927;52.472;13.108;2022-11-15T06:44:11;3.60;99.90
9776;DHT22;4927;52.472;13.108;2022-11-15T06:49:18;3.50;99.90
9776;DHT22;4927;52.472;13.108;2022-11-15T06:54:24;3.50;99.90
9776;DHT22;4927;52.472;13.108;2022-11-15T06:59:30;3.60;99.90
9776;DHT22;4927;52.472;13.108;2022-11-15T07:04:36;3.70;99.90
9776;DHT22;4927;52.472;13.108;2022-11-15T07:09:43;3.70;99.90
9776;DHT22;4927;52.472;13.108;2022-11-15T07:14:50;3.70;99.90
9776;DHT22;4927;52.472;13.108;2022-11-15T07:19:56;3.80;99.90
9776;DHT22;4927;52.472;13.108;2022-11-15T07:25:03;3.80;99.90
9776;DHT22;4927;52.472;13.108;2022-11-15T07:30:10;3.90;99.90
9776;DHT22;4927;52.472;13.108;2022-11-15T07:35:16;4.00;99.90
9776;DHT22;4927;52.472;13.108;2022-11-15T07:40:23;4.20;99.90
9776;DHT22;4927;52.472;13.108;2022-11-15T07:45:29;4.50;99.90
9776;DHT22;4927;52.472;13.108;2022-11-15T07:50:35;4.70;99.90
9776;DHT22;4927;52.472;13.108;2022-11-15T07:55:40;4.80;99.90
9776;DHT22;4927;52.472;13.108;2022-11-15T08:00:46;5.00;99.90
9776;DHT22;4927;52.472;13.108;2022-11-15T08:05:52;5.20;99.90
9776;DHT22;4927;52.472;13.108;2022-11-15T08:10:58;5.40;99.90
9776;DHT22;4927;52.472;13.108;2022-11-15T08:16:05;5.50;99.90
9776;DHT22;4927;52.472;13.108;2022-11-15T08:21:12;5.60;99.90
9776;DHT22;4927;52.472;13.108;2022-11-15T08:26:18;5.80;99.90
9776;DHT22;4927;52.472;13.108;2022-11-15T08:31:25;5.90;99.90
9776;DHT22;4927;52.472;13.108;2022-11-15T08:36:31;5.90;99.90
9776;DHT22;4927;52.472;13.108;2022-11-15T08:41:37;6.10;99.90
9776;DHT22;4927;52.472;13.108;2022-11-15T08:46:45;6.20;99.90
9776;DHT22;4927;52.472;13.108;2022-11-15T08:51:50;6.40;99.90
9776;DHT22;4927;52.472;13.108;2022-11-15T08:56:56;6.50;99.90
9776;DHT22;4927;52.472;13.108;2022-11-15T09:02:00;6.70;99.90
9776;DHT22;4927;52.472;13.108;2022-11-15T09:07:06;6.80;99.90
9776;DHT22;4927;52.472;13.108;2022-11-15T09:12:13;6.90;99.90
9776;DHT22;4927;52.472;13.108;2022-11-15T09:17:19;7.00;99.90
9776;DHT22;4927;52.472;13.108;2022-11-15T09:22:25;7.10;99.90
9776;DHT22;4927;52.472;13.108;2022-11-15T09:27:31;7.20;99.90
9776;DHT22;4927;52.472;13.108;2022-11-15T09:32:38;7.40;99.90
9776;DHT22;4927;52.472;13.108;2022-11-15T09:37:44;7.50;99.90
9776;DHT22;4927;52.472;13.108;2022-11-15T09:42:58;7.70;99.90
9776;DHT22;4927;52.472;13.108;2022-11-15T09:48:08;7.80;99.90
9776;DHT22;4927;52.472;13.108;2022-11-15T09:53:12;8.00;99.90
9776;DHT22;4927;52.472;13.108;2022-11-15T09:58:23;8.00;99.90
9776;DHT22;4927;52.472;13.108;2022-11-15T10:03:29;8.10;99.90
9776;DHT22;4927;52.472;13.108;2022-11-15T10:08:51;8.20;99.90
9776;DHT22;4927;52.472;13.108;2022-11-15T10:13:56;8.40;99.90
9776;DHT22;4927;52.472;13.108;2022-11-15T10:19:05;8.50;99.90
9776;DHT22;4927;52.472;13.108;2022-11-15T10:24:11;9.00;99.90
9776;DHT22;4927;52.472;13.108;2022-11-15T10:29:20;9.00;99.90
9776;DHT22;4927;52.472;13.108;2022-11-15T10:34:26;9.10;99.90
9776;DHT22;4927;52.472;13.108;2022-11-15T10:39:32;9.30;99.90
9776;DHT22;4927;52.472;13.108;2022-11-15T10:44:42;9.50;99.90
9776;DHT22;4927;52.472;13.108;2022-11-15T10:49:55;9.70;99.90
9776;DHT22;4927;52.472;13.108;2022-11-15T10:55:03;10.20;99.90
9776;DHT22;4927;52.472;13.108;2022-11-15T11:00:31;10.60;99.90
9776;DHT22;4927;52.472;13.108;2022-11-15T11:05:37;11.30;99.90
9776;DHT22;4927;52.472;13.108;2022-11-15T11:11:01;11.20;99.90
9776;DHT22;4927;52.472;13.108;2022-11-15T11:16:27;11.40;99.90
9776;DHT22;4927;52.472;13.108;2022-11-15T11:22:09;11.80;99.90
9776;DHT22;4927;52.472;13.108;2022-11-15T11:27:18;12.00;99.90
9776;DHT22;4927;52.472;13.108;2022-11-15T11:37:49;12.80;99.90
9776;DHT22;4927;52.472;13.108;2022-11-15T11:42:59;12.70;99.90
9776;DHT22;4927;52.472;13.108;2022-11-15T11:53:25;12.90;99.90
9776;DHT22;4927;52.472;13.108;2022-11-15T11:58:33;13.40;99.90
9776;DHT22;4927;52.472;13.108;2022-11-15T12:03:41;13.50;99.90
9776;DHT22;4927;52.472;13.108;2022-11-15T12:19:28;13.30;99.90
9776;DHT22;4927;52.472;13.108;2022-11-15T12:30:03;13.50;99.90
9776;DHT22;4927;52.472;13.108;2022-11-15T12:40:29;13.70;99.90
9776;DHT22;4927;52.472;13.108;2022-11-15T12:45:36;13.70;99.90
9776;DHT22;4927;52.472;13.108;2022-11-15T12:50:56;13.80;99.90
9776;DHT22;4927;52.472;13.108;2022-11-15T12:56:20;13.80;99.90
9776;DHT22;4927;52.472;13.108;2022-11-15T13:01:54;13.80;99.90
9776;DHT22;4927;52.472;13.108;2022-11-15T13:07:03;13.70;99.90
9776;DHT22;4927;52.472;13.108;2022-11-15T13:12:11;13.60;99.90
9776;DHT22;4927;52.472;13.108;2022-11-15T13:17:29;13.60;99.90
9776;DHT22;4927;52.472;13.108;2022-11-15T13:22:58;13.60;99.90
9776;DHT22;4927;52.472;13.108;2022-11-15T13:27:56;13.50;99.90
9776;DHT22;4927;52.472;13.108;2022-11-15T13:33:08;13.50;99.90
9776;DHT22;4927;52.472;13.108;2022-11-15T13:38:33;13.40;99.90
9776;DHT22;4927;52.472;13.108;2022-11-15T13:43:38;13.20;99.90
9776;DHT22;4927;52.472;13.108;2022-11-15T13:48:45;13.20;99.90
9776;DHT22;4927;52.472;13.108;2022-11-15T13:53:52;13.20;99.90
9776;DHT22;4927;52.472;13.108;2022-11-15T13:58:56;13.20;99.90
9776;DHT22;4927;52.472;13.108;2022-11-15T14:04:03;13.10;99.90
9776;DHT22;4927;52.472;13.108;2022-11-15T14:14:44;12.80;99.90
9776;DHT22;4927;52.472;13.108;2022-11-15T14:19:44;12.70;99.90
9776;DHT22;4927;52.472;13.108;2022-11-15T14:30:13;12.80;99.90
9776;DHT22;4927;52.472;13.108;2022-11-15T14:35:20;12.70;99.90
9776;DHT22;4927;52.472;13.108;2022-11-15T14:40:25;12.50;99.90
9776;DHT22;4927;52.472;13.108;2022-11-15T14:45:31;12.40;99.90
9776;DHT22;4927;52.472;13.108;2022-11-15T14:50:37;12.30;99.90
9776;DHT22;4927;52.472;13.108;2022-11-15T14:55:42;11.80;99.90
9776;DHT22;4927;52.472;13.108;2022-11-15T15:00:49;11.70;99.90
9776;DHT22;4927;52.472;13.108;2022-11-15T15:05:56;11.40;99.90
9776;DHT22;4927;52.472;13.108;2022-11-15T15:11:03;11.40;99.90
9776;DHT22;4927;52.472;13.108;2022-11-15T15:16:09;11.00;99.90
9776;DHT22;4927;52.472;13.108;2022-11-15T15:21:20;10.40;99.90
9776;DHT22;4927;52.472;13.108;2022-11-15T15:26:24;10.40;99.90
9776;DHT22;4927;52.472;13.108;2022-11-15T15:31:30;10.10;99.90
9776;DHT22;4927;52.472;13.108;2022-11-15T15:36:36;10.00;99.90
9776;DHT22;4927;52.472;13.108;2022-11-15T15:41:43;9.90;99.90
9776;DHT22;4927;52.472;13.108;2022-11-15T15:46:49;9.70;99.90
9776;DHT22;4927;52.472;13.108;2022-11-15T15:51:56;9.50;99.90
9776;DHT22;4927;52.472;13.108;2022-11-15T15:57:05;9.50;99.90
9776;DHT22;4927;52.472;13.108;2022-11-15T16:02:11;9.50;99.90
9776;DHT22;4927;52.472;13.108;2022-11-15T16:07:20;9.50;99.90
9776;DHT22;4927;52.472;13.108;2022-11-15T16:12:23;9.30;99.90
9776;DHT22;4927;52.472;13.108;2022-11-15T16:17:30;9.10;99.90
9776;DHT22;4927;52.472;13.108;2022-11-15T16:22:35;8.90;99.90
9776;DHT22;4927;52.472;13.108;2022-11-15T16:27:41;8.80;99.90
9776;DHT22;4927;52.472;13.108;2022-11-15T16:32:47;8.70;99.90
9776;DHT22;4927;52.472;13.108;2022-11-15T16:37:53;8.60;99.90
9776;DHT22;4927;52.472;13.108;2022-11-15T16:43:00;8.50;99.90
9776;DHT22;4927;52.472;13.108;2022-11-15T16:48:06;8.50;99.90
9776;DHT22;4927;52.472;13.108;2022-11-15T16:53:13;8.40;99.90
9776;DHT22;4927;52.472;13.108;2022-11-15T16:58:19;8.40;99.90
9776;DHT22;4927;52.472;13.108;2022-11-15T17:03:25;8.50;99.90
9776;DHT22;4927;52.472;13.108;2022-11-15T17:08:31;8.60;99.90
9776;DHT22;4927;52.472;13.108;2022-11-15T17:13:38;8.70;99.90
9776;DHT22;4927;52.472;13.108;2022-11-15T17:18:49;8.60;99.90
9776;DHT22;4927;52.472;13.108;2022-11-15T17:23:51;8.60;99.90
9776;DHT22;4927;52.472;13.108;2022-11-15T17:28:58;8.30;99.90
9776;DHT22;4927;52.472;13.108;2022-11-15T17:34:05;8.30;99.90
9776;DHT22;4927;52.472;13.108;2022-11-15T17:39:54;8.30;99.90
9776;DHT22;4927;52.472;13.108;2022-11-15T17:45:00;8.20;99.90
9776;DHT22;4927;52.472;13.108;2022-11-15T17:50:08;8.20;99.90
9776;DHT22;4927;52.472;13.108;2022-11-15T17:55:14;8.20;99.90
9776;DHT22;4927;52.472;13.108;2022-11-15T18:00:21;7.90;99.90
9776;DHT22;4927;52.472;13.108;2022-11-15T18:05:27;7.90;99.90
9776;DHT22;4927;52.472;13.108;2022-11-15T18:10:34;7.80;99.90
9776;DHT22;4927;52.472;13.108;2022-11-15T18:15:40;7.80;99.90
9776;DHT22;4927;52.472;13.108;2022-11-15T18:20:47;7.80;99.90
9776;DHT22;4927;52.472;13.108;2022-11-15T18:25:53;7.70;99.90
9776;DHT22;4927;52.472;13.108;2022-11-15T18:31:00;7.80;99.90
9776;DHT22;4927;52.472;13.108;2022-11-15T18:36:07;7.60;99.90
9776;DHT22;4927;52.472;13.108;2022-11-15T18:41:14;7.50;99.90
9776;DHT22;4927;52.472;13.108;2022-11-15T18:46:20;7.50;99.90
9776;DHT22;4927;52.472;13.108;2022-11-15T18:51:28;7.50;99.90
9776;DHT22;4927;52.472;13.108;2022-11-15T18:56:32;7.40;99.90
9776;DHT22;4927;52.472;13.108;2022-11-15T19:01:39;7.30;99.90
9776;DHT22;4927;52.472;13.108;2022-11-15T19:06:46;7.30;99.90
9776;DHT22;4927;52.472;13.108;2022-11-15T19:11:52;7.30;99.90
9776;DHT22;4927;52.472;13.108;2022-11-15T19:16:58;7.30;99.90
9776;DHT22;4927;52.472;13.108;2022-11-15T19:22:03;7.20;99.90
9776;DHT22;4927;52.472;13.108;2022-11-15T19:27:16;7.10;99.90
9776;DHT22;4927;52.472;13.108;2022-11-15T19:32:20;6.90;99.90
9776;DHT22;4927;52.472;13.108;2022-11-15T19:37:27;7.00;99.90
9776;DHT22;4927;52.472;13.108;2022-11-15T19:42:31;6.80;99.90
9776;DHT22;4927;52.472;13.108;2022-11-15T19:47:37;6.60;99.90
9776;DHT22;4927;52.472;13.108;2022-11-15T19:52:43;6.50;99.90
9776;DHT22;4927;52.472;13.108;2022-11-15T19:57:48;6.40;99.90
9776;DHT22;4927;52.472;13.108;2022-11-15T20:02:54;6.40;99.90
9776;DHT22;4927;52.472;13.108;2022-11-15T20:08:00;6.30;99.90
9776;DHT22;4927;52.472;13.108;2022-11-15T20:13:06;6.30;99.90
9776;DHT22;4927;52.472;13.108;2022-11-15T20:18:13;6.20;99.90
9776;DHT22;4927;52.472;13.108;2022-11-15T20:23:19;6.20;99.90
9776;DHT22;4927;52.472;13.108;2022-11-15T20:28:26;6.20;99.90
9776;DHT22;4927;52.472;13.108;2022-11-15T20:33:32;6.30;99.90
9776;DHT22;4927;52.472;13.108;2022-11-15T20:38:38;6.40;99.90
9776;DHT22;4927;52.472;13.108;2022-11-15T20:43:44;6.40;99.90
9776;DHT22;4927;52.472;13.108;2022-11-15T20:48:48;6.40;99.90
9776;DHT22;4927;52.472;13.108;2022-11-15T20:53:55;6.20;99.90
9776;DHT22;4927;52.472;13.108;2022-11-15T20:58:59;6.20;99.90
9776;DHT22;4927;52.472;13.108;2022-11-15T21:04:06;6.10;99.90
9776;DHT22;4927;52.472;13.108;2022-11-15T21:09:10;6.10;99.90
9776;DHT22;4927;52.472;13.108;2022-11-15T21:14:22;6.10;99.90
9776;DHT22;4927;52.472;13.108;2022-11-15T21:19:29;6.20;99.90
9776;DHT22;4927;52.472;13.108;2022-11-15T21:24:35;6.30;99.90
9776;DHT22;4927;52.472;13.108;2022-11-15T21:29:41;6.30;99.90
9776;DHT22;4927;52.472;13.108;2022-11-15T21:34:48;6.30;99.90
9776;DHT22;4927;52.472;13.108;2022-11-15T21:39:54;6.40;99.90
9776;DHT22;4927;52.472;13.108;2022-11-15T21:45:00;6.50;99.90
9776;DHT22;4927;52.472;13.108;2022-11-15T21:50:07;6.50;99.90
9776;DHT22;4927;52.472;13.108;2022-11-15T21:55:14;6.70;99.90
9776;DHT22;4927;52.472;13.108;2022-11-15T22:00:21;6.70;99.90
9776;DHT22;4927;52.472;13.108;2022-11-15T22:05:33;6.70;99.90
9776;DHT22;4927;52.472;13.108;2022-11-15T22:10:39;6.80;99.90
9776;DHT22;4927;52.472;13.108;2022-11-15T22:15:46;6.80;99.90
9776;DHT22;4927;52.472;13.108;2022-11-15T22:20:56;6.80;99.90
9776;DHT22;4927;52.472;13.108;2022-11-15T22:26:02;6.80;99.90
9776;DHT22;4927;52.472;13.108;2022-11-15T22:31:07;6.80;99.90
9776;DHT22;4927;52.472;13.108;2022-11-15T22:36:13;6.80;99.90
9776;DHT22;4927;52.472;13.108;2022-11-15T22:41:19;6.80;99.90
9776;DHT22;4927;52.472;13.108;2022-11-15T22:46:25;6.80;99.90
9776;DHT22;4927;52.472;13.108;2022-11-15T22:51:32;6.80;99.90
9776;DHT22;4927;52.472;13.108;2022-11-15T22:56:36;6.70;99.90
9776;DHT22;4927;52.472;13.108;2022-11-15T23:01:42;6.70;99.90
9776;DHT22;4927;52.472;13.108;2022-11-15T23:06:48;6.70;99.90
9776;DHT22;4927;52.472;13.108;2022-11-15T23:11:53;6.70;99.90
9776;DHT22;4927;52.472;13.108;2022-11-15T23:17:06;6.70;99.90
9776;DHT22;4927;52.472;13.108;2022-11-15T23:22:13;6.70;99.90
9776;DHT22;4927;52.472;13.108;2022-11-15T23:27:26;6.60;99.90
9776;DHT22;4927;52.472;13.108;2022-11-15T23:32:32;6.60;99.90
9776;DHT22;4927;52.472;13.108;2022-11-15T23:37:45;6.40;99.90
9776;DHT22;4927;52.472;13.108;2022-11-15T23:42:51;6.40;99.90
9776;DHT22;4927;52.472;13.108;2022-11-15T23:47:57;6.30;99.90
9776;DHT22;4927;52.472;13.108;2022-11-15T23:53:04;6.30;99.90
9776;DHT22;4927;52.472;13.108;2022-11-15T23:58:10;6.40;99.90
